sensor_id;sensor_type;location;lat;lon;timestamp;P1;durP1;ratioP1;P2;durP2;ratioP2
76761;SDS011;65705;51.032;13.790;2023-06-01T00:01:32;5.22;;;2.33;;
76761;SDS011;65705;51.032;13.790;2023-06-01T00:03:59;4.70;;;2.00;;
76761;SDS011;65705;51.032;13.790;2023-06-01T00:06:25;6.47;;;2.45;;
76761;SDS011;65705;51.032;13.790;2023-06-01T00:08:55;5.28;;;2.22;;
76761;SDS011;65705;51.032;13.790;2023-06-01T00:11:22;8.02;;;2.13;;
76761;SDS011;65705;51.032;13.790;2023-06-01T00:13:48;7.63;;;2.40;;
76761;SDS011;65705;51.032;13.790;2023-06-01T00:16:15;7.93;;;2.40;;
76761;SDS011;65705;51.032;13.790;2023-06-01T00:18:42;6.65;;;2.40;;
76761;SDS011;65705;51.032;13.790;2023-06-01T00:21:08;7.95;;;2.40;;
76761;SDS011;65705;51.032;13.790;2023-06-01T00:23:34;7.22;;;2.40;;
76761;SDS011;65705;51.032;13.790;2023-06-01T00:26:00;8.52;;;2.80;;
76761;SDS011;65705;51.032;13.790;2023-06-01T00:28:27;4.63;;;2.10;;
76761;SDS011;65705;51.032;13.790;2023-06-01T00:30:53;5.43;;;1.85;;
76761;SDS011;65705;51.032;13.790;2023-06-01T00:33:20;8.05;;;2.50;;
76761;SDS011;65705;51.032;13.790;2023-06-01T00:35:45;11.65;;;2.85;;
76761;SDS011;65705;51.032;13.790;2023-06-01T00:38:11;6.30;;;2.30;;
76761;SDS011;65705;51.032;13.790;2023-06-01T00:40:37;6.00;;;2.45;;
76761;SDS011;65705;51.032;13.790;2023-06-01T00:43:03;7.57;;;2.58;;
76761;SDS011;65705;51.032;13.790;2023-06-01T00:45:30;11.73;;;2.45;;
76761;SDS011;65705;51.032;13.790;2023-06-01T00:47:56;6.22;;;2.22;;
76761;SDS011;65705;51.032;13.790;2023-06-01T00:50:22;5.50;;;2.28;;
76761;SDS011;65705;51.032;13.790;2023-06-01T00:52:51;9.27;;;2.17;;
76761;SDS011;65705;51.032;13.790;2023-06-01T00:55:18;6.78;;;2.20;;
76761;SDS011;65705;51.032;13.790;2023-06-01T00:57:46;4.40;;;2.03;;
76761;SDS011;65705;51.032;13.790;2023-06-01T01:00:12;5.45;;;2.50;;
76761;SDS011;65705;51.032;13.790;2023-06-01T01:02:38;5.57;;;2.25;;
76761;SDS011;65705;51.032;13.790;2023-06-01T01:05:05;7.43;;;2.30;;
76761;SDS011;65705;51.032;13.790;2023-06-01T01:07:38;5.40;;;2.35;;
76761;SDS011;65705;51.032;13.790;2023-06-01T01:13:30;7.22;;;2.30;;
76761;SDS011;65705;51.032;13.790;2023-06-01T01:16:05;5.80;;;2.67;;
76761;SDS011;65705;51.032;13.790;2023-06-01T01:18:41;5.50;;;1.95;;
76761;SDS011;65705;51.032;13.790;2023-06-01T01:21:11;4.75;;;1.80;;
76761;SDS011;65705;51.032;13.790;2023-06-01T01:29:34;12.15;;;2.60;;
76761;SDS011;65705;51.032;13.790;2023-06-01T01:32:03;11.40;;;2.63;;
76761;SDS011;65705;51.032;13.790;2023-06-01T01:34:31;7.18;;;2.53;;
76761;SDS011;65705;51.032;13.790;2023-06-01T01:36:58;6.45;;;2.20;;
76761;SDS011;65705;51.032;13.790;2023-06-01T01:39:25;5.78;;;2.30;;
76761;SDS011;65705;51.032;13.790;2023-06-01T01:41:50;6.95;;;2.42;;
76761;SDS011;65705;51.032;13.790;2023-06-01T01:44:16;6.57;;;2.08;;
76761;SDS011;65705;51.032;13.790;2023-06-01T01:49:23;6.70;;;2.30;;
76761;SDS011;65705;51.032;13.790;2023-06-01T01:51:57;5.40;;;2.17;;
76761;SDS011;65705;51.032;13.790;2023-06-01T01:54:29;5.40;;;2.10;;
76761;SDS011;65705;51.032;13.790;2023-06-01T01:56:57;6.28;;;2.13;;
76761;SDS011;65705;51.032;13.790;2023-06-01T01:59:26;4.97;;;2.20;;
76761;SDS011;65705;51.032;13.790;2023-06-01T02:01:52;4.90;;;2.20;;
76761;SDS011;65705;51.032;13.790;2023-06-01T02:04:18;7.78;;;2.55;;
76761;SDS011;65705;51.032;13.790;2023-06-01T02:06:44;7.82;;;2.55;;
76761;SDS011;65705;51.032;13.790;2023-06-01T02:09:11;6.15;;;2.40;;
76761;SDS011;65705;51.032;13.790;2023-06-01T02:11:37;6.75;;;2.60;;
76761;SDS011;65705;51.032;13.790;2023-06-01T02:14:03;6.22;;;2.60;;
76761;SDS011;65705;51.032;13.790;2023-06-01T02:16:29;6.22;;;2.60;;
76761;SDS011;65705;51.032;13.790;2023-06-01T02:18:55;6.57;;;2.95;;
76761;SDS011;65705;51.032;13.790;2023-06-01T02:21:24;6.00;;;2.60;;
76761;SDS011;65705;51.032;13.790;2023-06-01T02:23:50;6.57;;;2.00;;
76761;SDS011;65705;51.032;13.790;2023-06-01T02:26:16;6.13;;;2.40;;
76761;SDS011;65705;51.032;13.790;2023-06-01T02:28:42;5.85;;;2.35;;
76761;SDS011;65705;51.032;13.790;2023-06-01T02:31:08;12.73;;;2.50;;
76761;SDS011;65705;51.032;13.790;2023-06-01T02:33:35;4.80;;;2.15;;
76761;SDS011;65705;51.032;13.790;2023-06-01T02:36:01;5.28;;;2.10;;
76761;SDS011;65705;51.032;13.790;2023-06-01T02:38:27;5.88;;;2.13;;
76761;SDS011;65705;51.032;13.790;2023-06-01T02:40:53;6.90;;;2.28;;
76761;SDS011;65705;51.032;13.790;2023-06-01T02:43:19;6.88;;;2.28;;
76761;SDS011;65705;51.032;13.790;2023-06-01T02:45:45;6.20;;;1.95;;
76761;SDS011;65705;51.032;13.790;2023-06-01T02:48:11;4.90;;;2.20;;
76761;SDS011;65705;51.032;13.790;2023-06-01T02:50:37;5.72;;;2.70;;
76761;SDS011;65705;51.032;13.790;2023-06-01T02:53:03;5.05;;;2.15;;
76761;SDS011;65705;51.032;13.790;2023-06-01T02:55:30;9.85;;;2.60;;
76761;SDS011;65705;51.032;13.790;2023-06-01T02:58:28;6.35;;;2.35;;
76761;SDS011;65705;51.032;13.790;2023-06-01T03:01:07;4.80;;;2.05;;
76761;SDS011;65705;51.032;13.790;2023-06-01T03:06:04;6.47;;;2.10;;
76761;SDS011;65705;51.032;13.790;2023-06-01T03:08:51;6.95;;;2.78;;
76761;SDS011;65705;51.032;13.790;2023-06-01T03:11:36;5.65;;;2.13;;
76761;SDS011;65705;51.032;13.790;2023-06-01T03:14:02;5.93;;;2.38;;
76761;SDS011;65705;51.032;13.790;2023-06-01T03:16:28;7.55;;;2.50;;
76761;SDS011;65705;51.032;13.790;2023-06-01T03:19:06;4.28;;;2.10;;
76761;SDS011;65705;51.032;13.790;2023-06-01T03:21:32;8.52;;;2.20;;
76761;SDS011;65705;51.032;13.790;2023-06-01T03:23:59;6.20;;;2.83;;
76761;SDS011;65705;51.032;13.790;2023-06-01T03:26:25;6.22;;;2.22;;
76761;SDS011;65705;51.032;13.790;2023-06-01T03:28:50;6.75;;;2.47;;
76761;SDS011;65705;51.032;13.790;2023-06-01T03:31:16;6.18;;;2.33;;
76761;SDS011;65705;51.032;13.790;2023-06-01T03:33:44;6.95;;;2.50;;
76761;SDS011;65705;51.032;13.790;2023-06-01T03:36:10;4.70;;;2.35;;
76761;SDS011;65705;51.032;13.790;2023-06-01T03:38:36;4.47;;;2.15;;
76761;SDS011;65705;51.032;13.790;2023-06-01T03:41:02;5.15;;;2.35;;
76761;SDS011;65705;51.032;13.790;2023-06-01T03:43:27;7.43;;;2.63;;
76761;SDS011;65705;51.032;13.790;2023-06-01T03:45:53;6.50;;;2.17;;
76761;SDS011;65705;51.032;13.790;2023-06-01T03:48:19;6.20;;;2.25;;
76761;SDS011;65705;51.032;13.790;2023-06-01T03:50:46;7.63;;;2.33;;
76761;SDS011;65705;51.032;13.790;2023-06-01T03:53:12;7.38;;;2.35;;
76761;SDS011;65705;51.032;13.790;2023-06-01T03:55:37;3.97;;;2.17;;
76761;SDS011;65705;51.032;13.790;2023-06-01T03:58:19;10.07;;;2.50;;
76761;SDS011;65705;51.032;13.790;2023-06-01T04:00:46;4.63;;;2.20;;
76761;SDS011;65705;51.032;13.790;2023-06-01T04:03:12;5.78;;;2.63;;
76761;SDS011;65705;51.032;13.790;2023-06-01T04:05:40;4.95;;;2.35;;
76761;SDS011;65705;51.032;13.790;2023-06-01T04:08:06;10.45;;;2.45;;
76761;SDS011;65705;51.032;13.790;2023-06-01T04:10:34;8.07;;;2.42;;
76761;SDS011;65705;51.032;13.790;2023-06-01T04:13:00;7.28;;;2.40;;
76761;SDS011;65705;51.032;13.790;2023-06-01T04:15:28;6.75;;;2.40;;
76761;SDS011;65705;51.032;13.790;2023-06-01T04:17:54;5.97;;;2.45;;
76761;SDS011;65705;51.032;13.790;2023-06-01T04:20:20;6.55;;;2.72;;
76761;SDS011;65705;51.032;13.790;2023-06-01T04:22:46;5.93;;;2.45;;
76761;SDS011;65705;51.032;13.790;2023-06-01T04:25:13;11.65;;;2.60;;
76761;SDS011;65705;51.032;13.790;2023-06-01T04:27:44;6.85;;;3.17;;
76761;SDS011;65705;51.032;13.790;2023-06-01T04:30:12;6.90;;;2.40;;
76761;SDS011;65705;51.032;13.790;2023-06-01T04:32:39;8.57;;;2.55;;
76761;SDS011;65705;51.032;13.790;2023-06-01T04:35:07;7.05;;;2.65;;
76761;SDS011;65705;51.032;13.790;2023-06-01T04:37:33;10.40;;;2.50;;
76761;SDS011;65705;51.032;13.790;2023-06-01T04:40:01;6.90;;;2.58;;
76761;SDS011;65705;51.032;13.790;2023-06-01T04:42:36;7.32;;;2.55;;
76761;SDS011;65705;51.032;13.790;2023-06-01T04:45:11;10.77;;;2.78;;
76761;SDS011;65705;51.032;13.790;2023-06-01T04:47:40;8.25;;;2.30;;
76761;SDS011;65705;51.032;13.790;2023-06-01T04:50:13;9.23;;;2.50;;
76761;SDS011;65705;51.032;13.790;2023-06-01T04:55:10;9.25;;;3.17;;
76761;SDS011;65705;51.032;13.790;2023-06-01T04:57:38;5.80;;;2.40;;
76761;SDS011;65705;51.032;13.790;2023-06-01T05:00:05;5.57;;;2.45;;
76761;SDS011;65705;51.032;13.790;2023-06-01T05:02:39;14.18;;;2.55;;
76761;SDS011;65705;51.032;13.790;2023-06-01T05:05:06;6.50;;;2.92;;
76761;SDS011;65705;51.032;13.790;2023-06-01T05:07:34;6.60;;;2.63;;
76761;SDS011;65705;51.032;13.790;2023-06-01T05:10:02;7.28;;;2.25;;
76761;SDS011;65705;51.032;13.790;2023-06-01T05:12:38;10.32;;;2.90;;
76761;SDS011;65705;51.032;13.790;2023-06-01T05:15:08;12.18;;;2.65;;
76761;SDS011;65705;51.032;13.790;2023-06-01T05:17:35;8.80;;;2.40;;
76761;SDS011;65705;51.032;13.790;2023-06-01T05:20:06;7.93;;;2.40;;
76761;SDS011;65705;51.032;13.790;2023-06-01T05:22:34;18.73;;;2.83;;
76761;SDS011;65705;51.032;13.790;2023-06-01T05:25:01;5.40;;;2.50;;
76761;SDS011;65705;51.032;13.790;2023-06-01T05:27:29;5.07;;;2.47;;
76761;SDS011;65705;51.032;13.790;2023-06-01T05:29:54;7.45;;;2.67;;
76761;SDS011;65705;51.032;13.790;2023-06-01T05:32:20;9.10;;;2.67;;
76761;SDS011;65705;51.032;13.790;2023-06-01T05:34:46;6.35;;;2.20;;
76761;SDS011;65705;51.032;13.790;2023-06-01T05:37:12;7.47;;;2.38;;
76761;SDS011;65705;51.032;13.790;2023-06-01T05:39:38;13.57;;;2.80;;
76761;SDS011;65705;51.032;13.790;2023-06-01T05:42:04;9.10;;;2.63;;
76761;SDS011;65705;51.032;13.790;2023-06-01T05:44:35;8.07;;;2.58;;
76761;SDS011;65705;51.032;13.790;2023-06-01T05:47:01;6.57;;;2.55;;
76761;SDS011;65705;51.032;13.790;2023-06-01T05:49:27;7.55;;;2.35;;
76761;SDS011;65705;51.032;13.790;2023-06-01T05:51:56;6.55;;;2.53;;
76761;SDS011;65705;51.032;13.790;2023-06-01T05:54:23;6.95;;;2.65;;
76761;SDS011;65705;51.032;13.790;2023-06-01T05:56:49;10.98;;;2.65;;
76761;SDS011;65705;51.032;13.790;2023-06-01T05:59:16;11.25;;;3.20;;
76761;SDS011;65705;51.032;13.790;2023-06-01T06:01:42;4.53;;;2.38;;
76761;SDS011;65705;51.032;13.790;2023-06-01T06:04:09;13.73;;;2.60;;
76761;SDS011;65705;51.032;13.790;2023-06-01T06:06:36;18.65;;;3.42;;
76761;SDS011;65705;51.032;13.790;2023-06-01T06:09:02;7.78;;;4.03;;
76761;SDS011;65705;51.032;13.790;2023-06-01T06:11:29;5.65;;;2.50;;
76761;SDS011;65705;51.032;13.790;2023-06-01T06:13:55;7.72;;;2.88;;
76761;SDS011;65705;51.032;13.790;2023-06-01T06:16:21;10.77;;;2.40;;
76761;SDS011;65705;51.032;13.790;2023-06-01T06:18:47;7.40;;;2.47;;
76761;SDS011;65705;51.032;13.790;2023-06-01T06:21:13;6.07;;;2.63;;
76761;SDS011;65705;51.032;13.790;2023-06-01T06:23:39;10.48;;;2.95;;
76761;SDS011;65705;51.032;13.790;2023-06-01T06:26:05;8.50;;;2.70;;
76761;SDS011;65705;51.032;13.790;2023-06-01T06:28:32;7.45;;;2.70;;
76761;SDS011;65705;51.032;13.790;2023-06-01T06:30:58;12.93;;;2.90;;
76761;SDS011;65705;51.032;13.790;2023-06-01T06:33:24;8.25;;;2.83;;
76761;SDS011;65705;51.032;13.790;2023-06-01T06:35:50;8.90;;;3.50;;
76761;SDS011;65705;51.032;13.790;2023-06-01T06:38:16;11.75;;;3.15;;
76761;SDS011;65705;51.032;13.790;2023-06-01T06:40:42;8.30;;;2.75;;
76761;SDS011;65705;51.032;13.790;2023-06-01T06:43:08;12.38;;;5.05;;
76761;SDS011;65705;51.032;13.790;2023-06-01T06:45:34;8.55;;;3.75;;
76761;SDS011;65705;51.032;13.790;2023-06-01T06:48:00;11.30;;;3.08;;
76761;SDS011;65705;51.032;13.790;2023-06-01T06:50:26;7.88;;;2.70;;
76761;SDS011;65705;51.032;13.790;2023-06-01T06:52:52;11.13;;;2.65;;
76761;SDS011;65705;51.032;13.790;2023-06-01T06:55:18;7.45;;;2.60;;
76761;SDS011;65705;51.032;13.790;2023-06-01T06:57:44;8.35;;;2.60;;
76761;SDS011;65705;51.032;13.790;2023-06-01T07:00:10;8.07;;;2.70;;
76761;SDS011;65705;51.032;13.790;2023-06-01T07:02:40;7.35;;;2.10;;
76761;SDS011;65705;51.032;13.790;2023-06-01T07:05:07;8.20;;;2.42;;
76761;SDS011;65705;51.032;13.790;2023-06-01T07:07:33;13.38;;;2.38;;
76761;SDS011;65705;51.032;13.790;2023-06-01T07:09:59;7.57;;;2.25;;
76761;SDS011;65705;51.032;13.790;2023-06-01T07:12:25;10.77;;;2.25;;
76761;SDS011;65705;51.032;13.790;2023-06-01T07:14:51;7.40;;;2.30;;
76761;SDS011;65705;51.032;13.790;2023-06-01T07:17:16;8.32;;;2.45;;
76761;SDS011;65705;51.032;13.790;2023-06-01T07:19:42;9.07;;;2.38;;
76761;SDS011;65705;51.032;13.790;2023-06-01T07:22:08;9.02;;;2.35;;
76761;SDS011;65705;51.032;13.790;2023-06-01T07:24:34;8.00;;;2.65;;
76761;SDS011;65705;51.032;13.790;2023-06-01T07:26:59;23.25;;;3.40;;
76761;SDS011;65705;51.032;13.790;2023-06-01T07:29:25;11.73;;;3.00;;
76761;SDS011;65705;51.032;13.790;2023-06-01T07:31:51;9.45;;;3.05;;
76761;SDS011;65705;51.032;13.790;2023-06-01T07:34:18;10.85;;;3.35;;
76761;SDS011;65705;51.032;13.790;2023-06-01T07:36:45;14.40;;;3.10;;
76761;SDS011;65705;51.032;13.790;2023-06-01T07:39:12;6.60;;;2.30;;
76761;SDS011;65705;51.032;13.790;2023-06-01T07:41:38;10.73;;;2.70;;
76761;SDS011;65705;51.032;13.790;2023-06-01T07:44:06;7.53;;;2.75;;
76761;SDS011;65705;51.032;13.790;2023-06-01T07:46:33;9.00;;;2.08;;
76761;SDS011;65705;51.032;13.790;2023-06-01T07:48:58;9.45;;;2.85;;
76761;SDS011;65705;51.032;13.790;2023-06-01T07:51:24;10.10;;;3.28;;
76761;SDS011;65705;51.032;13.790;2023-06-01T07:53:50;9.75;;;2.45;;
76761;SDS011;65705;51.032;13.790;2023-06-01T07:56:16;10.45;;;2.33;;
76761;SDS011;65705;51.032;13.790;2023-06-01T07:58:42;14.20;;;2.15;;
76761;SDS011;65705;51.032;13.790;2023-06-01T08:01:09;8.82;;;2.58;;
76761;SDS011;65705;51.032;13.790;2023-06-01T08:03:35;9.23;;;2.75;;
76761;SDS011;65705;51.032;13.790;2023-06-01T08:06:02;15.15;;;6.13;;
76761;SDS011;65705;51.032;13.790;2023-06-01T08:08:30;10.13;;;2.90;;
76761;SDS011;65705;51.032;13.790;2023-06-01T08:10:56;8.40;;;3.03;;
76761;SDS011;65705;51.032;13.790;2023-06-01T08:13:22;11.13;;;2.40;;
76761;SDS011;65705;51.032;13.790;2023-06-01T08:15:51;12.43;;;3.08;;
76761;SDS011;65705;51.032;13.790;2023-06-01T08:18:18;10.05;;;2.67;;
76761;SDS011;65705;51.032;13.790;2023-06-01T08:20:45;8.20;;;2.55;;
76761;SDS011;65705;51.032;13.790;2023-06-01T08:23:11;12.18;;;3.00;;
76761;SDS011;65705;51.032;13.790;2023-06-01T08:25:37;12.20;;;2.17;;
76761;SDS011;65705;51.032;13.790;2023-06-01T08:28:03;7.65;;;2.10;;
76761;SDS011;65705;51.032;13.790;2023-06-01T08:30:28;5.18;;;1.75;;
76761;SDS011;65705;51.032;13.790;2023-06-01T08:32:54;8.88;;;2.00;;
76761;SDS011;65705;51.032;13.790;2023-06-01T08:35:20;6.75;;;1.95;;
76761;SDS011;65705;51.032;13.790;2023-06-01T08:37:47;8.20;;;2.63;;
76761;SDS011;65705;51.032;13.790;2023-06-01T08:40:13;10.80;;;2.50;;
76761;SDS011;65705;51.032;13.790;2023-06-01T08:42:42;6.85;;;2.20;;
76761;SDS011;65705;51.032;13.790;2023-06-01T08:45:21;13.98;;;2.83;;
76761;SDS011;65705;51.032;13.790;2023-06-01T08:47:52;10.77;;;2.53;;
76761;SDS011;65705;51.032;13.790;2023-06-01T08:50:19;6.40;;;2.45;;
76761;SDS011;65705;51.032;13.790;2023-06-01T08:52:46;8.23;;;2.40;;
76761;SDS011;65705;51.032;13.790;2023-06-01T08:55:13;8.60;;;2.10;;
76761;SDS011;65705;51.032;13.790;2023-06-01T08:57:40;7.10;;;2.63;;
76761;SDS011;65705;51.032;13.790;2023-06-01T09:00:06;12.25;;;2.42;;
76761;SDS011;65705;51.032;13.790;2023-06-01T09:02:33;4.18;;;2.00;;
76761;SDS011;65705;51.032;13.790;2023-06-01T09:04:59;9.45;;;2.80;;
76761;SDS011;65705;51.032;13.790;2023-06-01T09:07:25;8.02;;;2.70;;
76761;SDS011;65705;51.032;13.790;2023-06-01T09:09:51;11.80;;;2.38;;
76761;SDS011;65705;51.032;13.790;2023-06-01T09:12:24;6.15;;;2.15;;
76761;SDS011;65705;51.032;13.790;2023-06-01T09:15:34;8.43;;;2.47;;
76761;SDS011;65705;51.032;13.790;2023-06-01T09:17:46;8.63;;;2.17;;
76761;SDS011;65705;51.032;13.790;2023-06-01T09:20:21;7.63;;;1.95;;
76761;SDS011;65705;51.032;13.790;2023-06-01T09:22:49;8.23;;;2.28;;
76761;SDS011;65705;51.032;13.790;2023-06-01T09:25:15;8.85;;;2.55;;
76761;SDS011;65705;51.032;13.790;2023-06-01T09:27:48;5.60;;;2.38;;
76761;SDS011;65705;51.032;13.790;2023-06-01T09:30:17;10.45;;;2.58;;
76761;SDS011;65705;51.032;13.790;2023-06-01T09:32:44;8.48;;;2.40;;
76761;SDS011;65705;51.032;13.790;2023-06-01T09:35:15;6.57;;;2.00;;
76761;SDS011;65705;51.032;13.790;2023-06-01T09:37:53;11.32;;;2.53;;
76761;SDS011;65705;51.032;13.790;2023-06-01T09:40:21;15.82;;;2.42;;
76761;SDS011;65705;51.032;13.790;2023-06-01T09:42:47;6.22;;;1.83;;
76761;SDS011;65705;51.032;13.790;2023-06-01T09:45:21;5.13;;;1.52;;
76761;SDS011;65705;51.032;13.790;2023-06-01T09:47:49;5.80;;;1.20;;
76761;SDS011;65705;51.032;13.790;2023-06-01T09:50:31;13.77;;;5.78;;
76761;SDS011;65705;51.032;13.790;2023-06-01T09:52:58;8.73;;;1.75;;
76761;SDS011;65705;51.032;13.790;2023-06-01T09:55:24;6.22;;;1.60;;
76761;SDS011;65705;51.032;13.790;2023-06-01T09:57:49;4.97;;;1.60;;
76761;SDS011;65705;51.032;13.790;2023-06-01T10:00:22;6.70;;;1.88;;
76761;SDS011;65705;51.032;13.790;2023-06-01T10:02:50;6.65;;;1.60;;
76761;SDS011;65705;51.032;13.790;2023-06-01T10:05:17;4.10;;;1.58;;
76761;SDS011;65705;51.032;13.790;2023-06-01T10:07:43;6.70;;;1.90;;
76761;SDS011;65705;51.032;13.790;2023-06-01T10:10:12;6.43;;;2.38;;
76761;SDS011;65705;51.032;13.790;2023-06-01T10:12:39;11.55;;;2.17;;
76761;SDS011;65705;51.032;13.790;2023-06-01T10:15:05;8.48;;;2.30;;
76761;SDS011;65705;51.032;13.790;2023-06-01T10:17:33;7.43;;;1.92;;
76761;SDS011;65705;51.032;13.790;2023-06-01T10:20:00;3.75;;;1.50;;
76761;SDS011;65705;51.032;13.790;2023-06-01T10:22:26;7.93;;;1.77;;
76761;SDS011;65705;51.032;13.790;2023-06-01T10:24:57;4.30;;;1.67;;
76761;SDS011;65705;51.032;13.790;2023-06-01T10:27:42;9.35;;;1.92;;
76761;SDS011;65705;51.032;13.790;2023-06-01T10:30:17;8.40;;;1.90;;
76761;SDS011;65705;51.032;13.790;2023-06-01T10:32:44;8.73;;;2.25;;
76761;SDS011;65705;51.032;13.790;2023-06-01T10:40:41;4.13;;;1.60;;
76761;SDS011;65705;51.032;13.790;2023-06-01T10:46:01;7.50;;;2.13;;
76761;SDS011;65705;51.032;13.790;2023-06-01T10:51:18;9.60;;;1.67;;
76761;SDS011;65705;51.032;13.790;2023-06-01T10:53:45;8.75;;;1.80;;
76761;SDS011;65705;51.032;13.790;2023-06-01T10:56:26;8.90;;;1.95;;
76761;SDS011;65705;51.032;13.790;2023-06-01T11:01:43;4.72;;;1.98;;
76761;SDS011;65705;51.032;13.790;2023-06-01T11:04:10;6.20;;;2.10;;
76761;SDS011;65705;51.032;13.790;2023-06-01T11:06:38;5.60;;;1.65;;
76761;SDS011;65705;51.032;13.790;2023-06-01T11:09:06;4.93;;;1.95;;
76761;SDS011;65705;51.032;13.790;2023-06-01T11:14:21;7.18;;;1.80;;
76761;SDS011;65705;51.032;13.790;2023-06-01T11:16:51;5.50;;;1.58;;
76761;SDS011;65705;51.032;13.790;2023-06-01T11:19:18;4.50;;;1.63;;
76761;SDS011;65705;51.032;13.790;2023-06-01T11:21:46;6.30;;;1.75;;
76761;SDS011;65705;51.032;13.790;2023-06-01T11:26:44;7.13;;;1.83;;
76761;SDS011;65705;51.032;13.790;2023-06-01T11:34:13;19.75;;;2.72;;
76761;SDS011;65705;51.032;13.790;2023-06-01T11:36:45;7.57;;;2.30;;
76761;SDS011;65705;51.032;13.790;2023-06-01T11:39:18;6.05;;;2.25;;
76761;SDS011;65705;51.032;13.790;2023-06-01T11:41:48;9.02;;;2.20;;
76761;SDS011;65705;51.032;13.790;2023-06-01T11:44:16;6.88;;;2.28;;
76761;SDS011;65705;51.032;13.790;2023-06-01T11:46:52;10.85;;;2.72;;
76761;SDS011;65705;51.032;13.790;2023-06-01T11:49:21;14.20;;;2.13;;
76761;SDS011;65705;51.032;13.790;2023-06-01T11:51:47;8.82;;;2.63;;
76761;SDS011;65705;51.032;13.790;2023-06-01T11:54:16;8.02;;;2.25;;
76761;SDS011;65705;51.032;13.790;2023-06-01T11:56:42;13.88;;;2.20;;
76761;SDS011;65705;51.032;13.790;2023-06-01T11:59:08;6.28;;;2.08;;
76761;SDS011;65705;51.032;13.790;2023-06-01T12:01:44;6.18;;;2.00;;
76761;SDS011;65705;51.032;13.790;2023-06-01T12:04:11;6.20;;;1.75;;
76761;SDS011;65705;51.032;13.790;2023-06-01T12:06:38;5.32;;;2.05;;
76761;SDS011;65705;51.032;13.790;2023-06-01T12:09:03;5.50;;;2.20;;
76761;SDS011;65705;51.032;13.790;2023-06-01T12:11:31;7.82;;;2.22;;
76761;SDS011;65705;51.032;13.790;2023-06-01T12:13:58;7.65;;;1.90;;
76761;SDS011;65705;51.032;13.790;2023-06-01T12:16:24;16.42;;;2.03;;
76761;SDS011;65705;51.032;13.790;2023-06-01T12:18:53;7.70;;;2.40;;
76761;SDS011;65705;51.032;13.790;2023-06-01T12:21:20;9.25;;;2.92;;
76761;SDS011;65705;51.032;13.790;2023-06-01T12:23:48;6.60;;;2.17;;
76761;SDS011;65705;51.032;13.790;2023-06-01T12:26:18;10.70;;;2.20;;
76761;SDS011;65705;51.032;13.790;2023-06-01T12:28:47;5.07;;;2.22;;
76761;SDS011;65705;51.032;13.790;2023-06-01T12:31:16;11.18;;;2.03;;
76761;SDS011;65705;51.032;13.790;2023-06-01T12:33:43;5.63;;;2.53;;
76761;SDS011;65705;51.032;13.790;2023-06-01T12:36:10;12.77;;;3.17;;
76761;SDS011;65705;51.032;13.790;2023-06-01T12:38:52;7.32;;;2.60;;
76761;SDS011;65705;51.032;13.790;2023-06-01T12:41:18;13.55;;;5.63;;
76761;SDS011;65705;51.032;13.790;2023-06-01T12:43:47;11.00;;;4.03;;
76761;SDS011;65705;51.032;13.790;2023-06-01T12:46:18;11.43;;;3.22;;
76761;SDS011;65705;51.032;13.790;2023-06-01T12:48:48;10.13;;;2.80;;
76761;SDS011;65705;51.032;13.790;2023-06-01T12:51:15;22.73;;;4.82;;
76761;SDS011;65705;51.032;13.790;2023-06-01T12:53:41;8.30;;;2.40;;
76761;SDS011;65705;51.032;13.790;2023-06-01T12:56:10;6.30;;;2.40;;
76761;SDS011;65705;51.032;13.790;2023-06-01T12:58:37;9.82;;;2.83;;
76761;SDS011;65705;51.032;13.790;2023-06-01T13:01:04;12.85;;;3.03;;
76761;SDS011;65705;51.032;13.790;2023-06-01T13:03:30;10.15;;;2.83;;
76761;SDS011;65705;51.032;13.790;2023-06-01T13:05:56;7.50;;;2.92;;
76761;SDS011;65705;51.032;13.790;2023-06-01T13:08:22;11.20;;;3.58;;
76761;SDS011;65705;51.032;13.790;2023-06-01T13:10:48;8.27;;;3.50;;
76761;SDS011;65705;51.032;13.790;2023-06-01T13:13:15;8.98;;;3.08;;
76761;SDS011;65705;51.032;13.790;2023-06-01T13:15:44;8.07;;;3.10;;
76761;SDS011;65705;51.032;13.790;2023-06-01T13:18:11;6.05;;;3.03;;
76761;SDS011;65705;51.032;13.790;2023-06-01T13:20:38;8.43;;;3.03;;
76761;SDS011;65705;51.032;13.790;2023-06-01T13:23:06;7.13;;;3.20;;
76761;SDS011;65705;51.032;13.790;2023-06-01T13:25:33;9.20;;;3.28;;
76761;SDS011;65705;51.032;13.790;2023-06-01T13:28:00;7.05;;;3.25;;
76761;SDS011;65705;51.032;13.790;2023-06-01T13:30:26;8.90;;;3.20;;
76761;SDS011;65705;51.032;13.790;2023-06-01T13:32:54;9.75;;;3.92;;
76761;SDS011;65705;51.032;13.790;2023-06-01T13:37:48;9.32;;;3.83;;
76761;SDS011;65705;51.032;13.790;2023-06-01T13:40:14;8.70;;;3.33;;
76761;SDS011;65705;51.032;13.790;2023-06-01T13:42:46;8.15;;;4.10;;
76761;SDS011;65705;51.032;13.790;2023-06-01T13:45:12;10.18;;;4.03;;
76761;SDS011;65705;51.032;13.790;2023-06-01T13:47:38;10.60;;;4.10;;
76761;SDS011;65705;51.032;13.790;2023-06-01T13:50:03;6.72;;;3.20;;
76761;SDS011;65705;51.032;13.790;2023-06-01T13:52:30;9.70;;;4.32;;
76761;SDS011;65705;51.032;13.790;2023-06-01T13:54:56;9.38;;;3.08;;
76761;SDS011;65705;51.032;13.790;2023-06-01T13:57:21;13.18;;;4.88;;
76761;SDS011;65705;51.032;13.790;2023-06-01T13:59:48;20.42;;;10.20;;
76761;SDS011;65705;51.032;13.790;2023-06-01T14:02:14;9.48;;;4.85;;
76761;SDS011;65705;51.032;13.790;2023-06-01T14:04:40;12.20;;;4.45;;
76761;SDS011;65705;51.032;13.790;2023-06-01T14:07:06;11.73;;;5.40;;
76761;SDS011;65705;51.032;13.790;2023-06-01T14:09:31;9.02;;;4.13;;
76761;SDS011;65705;51.032;13.790;2023-06-01T14:11:57;9.52;;;4.53;;
76761;SDS011;65705;51.032;13.790;2023-06-01T14:14:23;9.25;;;4.07;;
76761;SDS011;65705;51.032;13.790;2023-06-01T14:16:49;9.82;;;4.78;;
76761;SDS011;65705;51.032;13.790;2023-06-01T14:19:15;9.70;;;4.55;;
76761;SDS011;65705;51.032;13.790;2023-06-01T14:21:40;8.00;;;4.45;;
76761;SDS011;65705;51.032;13.790;2023-06-01T14:24:06;10.27;;;4.55;;
76761;SDS011;65705;51.032;13.790;2023-06-01T14:26:32;10.80;;;6.43;;
76761;SDS011;65705;51.032;13.790;2023-06-01T14:28:58;10.65;;;4.15;;
76761;SDS011;65705;51.032;13.790;2023-06-01T14:31:24;10.02;;;4.70;;
76761;SDS011;65705;51.032;13.790;2023-06-01T14:33:49;12.10;;;5.38;;
76761;SDS011;65705;51.032;13.790;2023-06-01T14:36:15;14.45;;;7.07;;
76761;SDS011;65705;51.032;13.790;2023-06-01T14:38:41;10.98;;;3.70;;
76761;SDS011;65705;51.032;13.790;2023-06-01T14:41:07;9.02;;;3.83;;
76761;SDS011;65705;51.032;13.790;2023-06-01T14:43:33;9.35;;;3.90;;
76761;SDS011;65705;51.032;13.790;2023-06-01T14:45:59;8.88;;;4.50;;
76761;SDS011;65705;51.032;13.790;2023-06-01T14:48:24;9.07;;;3.60;;
76761;SDS011;65705;51.032;13.790;2023-06-01T14:50:50;5.03;;;2.90;;
76761;SDS011;65705;51.032;13.790;2023-06-01T14:53:16;7.45;;;3.08;;
76761;SDS011;65705;51.032;13.790;2023-06-01T14:55:43;6.80;;;3.33;;
76761;SDS011;65705;51.032;13.790;2023-06-01T14:58:09;7.30;;;3.22;;
76761;SDS011;65705;51.032;13.790;2023-06-01T15:00:36;6.38;;;3.08;;
76761;SDS011;65705;51.032;13.790;2023-06-01T15:03:03;5.82;;;2.90;;
76761;SDS011;65705;51.032;13.790;2023-06-01T15:05:29;9.48;;;2.92;;
76761;SDS011;65705;51.032;13.790;2023-06-01T15:07:55;6.00;;;2.70;;
76761;SDS011;65705;51.032;13.790;2023-06-01T15:10:21;7.88;;;3.08;;
76761;SDS011;65705;51.032;13.790;2023-06-01T15:12:47;7.80;;;2.60;;
76761;SDS011;65705;51.032;13.790;2023-06-01T15:15:13;7.50;;;2.60;;
76761;SDS011;65705;51.032;13.790;2023-06-01T15:17:39;4.85;;;2.40;;